Afton Municipal Airport


Codes: KAFO/AFO
Name: Afton Municipal Airport
City: Afton
Country: United States
Elevation: 6221 ft.
Website:
Wikipedia:

Photos at Afton Municipal Airport


   Photos courtesy of SpottingLog. You can add your own sightings and photos by signing up for a free trial today.



No photos found.

Weather at Afton Municipal Airport


Time (UTC)DescriptionTempratureWindCloud coverageVisibilityPressureHumidity
19-Apr-2024 03:00Clear Sky2°C4 mph, E0%10000m1019hPa55%
19-Apr-2024 06:00Few Clouds-0°C4 mph, E15%10000m1022hPa64%
19-Apr-2024 09:00Few Clouds-2°C2 mph, E20%10000m1024hPa71%
19-Apr-2024 12:00Few Clouds-5°C4 mph, E20%10000m1027hPa77%
19-Apr-2024 15:00Few Clouds2°C2 mph, N13%10000m1022hPa54%
19-Apr-2024 18:00Scattered Clouds6°C2 mph, NW30%10000m1019hPa41%
19-Apr-2024 21:00Few Clouds9°C2 mph, NW22%10000m1016hPa37%
20-Apr-2024 00:00Broken Clouds7°C7 mph, NW54%10000m1016hPa47%
20-Apr-2024 03:00Overcast Clouds1°C2 mph, E100%10000m1021hPa70%
20-Apr-2024 06:00Overcast Clouds1°C2 mph, E100%10000m1022hPa74%
20-Apr-2024 09:00Overcast Clouds-0°C2 mph, E100%10000m1023hPa80%
20-Apr-2024 12:00Broken Clouds-2°C2 mph, E59%10000m1025hPa85%
20-Apr-2024 15:00Clear Sky4°C0 mph, NE8%10000m1021hPa63%
20-Apr-2024 18:00Clear Sky9°C4 mph, W6%10000m1019hPa47%
20-Apr-2024 21:00Few Clouds11°C11 mph, W22%10000m1017hPa38%
21-Apr-2024 00:00Scattered Clouds10°C9 mph, NW44%10000m1017hPa48%
21-Apr-2024 03:00Few Clouds4°C2 mph, NE16%10000m1020hPa73%
21-Apr-2024 06:00Few Clouds3°C4 mph, SE11%10000m1021hPa77%
21-Apr-2024 09:00Scattered Clouds2°C4 mph, SE37%10000m1021hPa77%
21-Apr-2024 12:00Broken Clouds3°C7 mph, SE58%10000m1020hPa79%
21-Apr-2024 15:00Broken Clouds9°C7 mph, S70%10000m1017hPa62%
21-Apr-2024 18:00Overcast Clouds13°C11 mph, SW85%10000m1014hPa47%
21-Apr-2024 21:00Overcast Clouds15°C16 mph, W100%10000m1011hPa47%
22-Apr-2024 00:00Light Rain12°C9 mph, W100%10000m1011hPa64%
22-Apr-2024 03:00Light Rain6°C4 mph, N100%10000m1013hPa85%
22-Apr-2024 06:00Overcast Clouds5°C2 mph, SE100%10000m1014hPa86%
22-Apr-2024 09:00Overcast Clouds2°C2 mph, NE100%10000m1017hPa74%
22-Apr-2024 12:00Broken Clouds-0°C2 mph, SE84%10000m1018hPa67%
22-Apr-2024 15:00Clear Sky4°C4 mph, W0%10000m1016hPa45%
22-Apr-2024 18:00Clear Sky8°C9 mph, NW0%10000m1014hPa39%
22-Apr-2024 21:00Clear Sky10°C11 mph, NW2%10000m1013hPa33%
23-Apr-2024 00:00Clear Sky9°C9 mph, NW2%10000m1013hPa36%
23-Apr-2024 03:00Clear Sky3°C0 mph, NW2%10000m1016hPa59%
23-Apr-2024 06:00Clear Sky2°C2 mph, E4%10000m1019hPa66%
23-Apr-2024 09:00Broken Clouds1°C4 mph, E60%10000m1019hPa64%
23-Apr-2024 12:00Broken Clouds1°C4 mph, SE58%10000m1020hPa60%
23-Apr-2024 15:00Overcast Clouds7°C2 mph, E89%10000m1016hPa41%
23-Apr-2024 18:00Overcast Clouds13°C7 mph, S94%10000m1013hPa26%
23-Apr-2024 21:00Overcast Clouds13°C9 mph, SW100%10000m1012hPa35%
24-Apr-2024 00:00Light Rain10°C4 mph, SE100%10000m1013hPa67%